Time;durP1;ratioP1;P1;durP2;ratioP2;P2;SDS_P1;SDS_P2;PMS_P1;PMS_P2;Temp;Humidity;BMP_temperature;BMP_pressure;BME280_temperature;BME280_humidity;BME280_pressure;Samples;Min_cycle;Max_cycle;Signal;HPM_P1;HPM_P2
2023/06/25 00:00:25;;;;;;;2.23;2.13;;;25.20;88.90;;;;;;5094377;28;20522;-90
2023/06/25 00:02:52;;;;;;;2.90;2.70;;;25.20;89.50;;;;;;5094219;28;20855;-90
2023/06/25 00:05:18;;;;;;;2.73;2.53;;;25.20;89.60;;;;;;5093560;28;20539;-90
2023/06/25 00:07:45;;;;;;;2.27;2.17;;;25.20;89.50;;;;;;5093471;28;20484;-90
2023/06/25 00:10:12;;;;;;;2.73;2.53;;;25.20;89.40;;;;;;5093568;28;20526;-90
2023/06/25 00:12:39;;;;;;;2.47;2.27;;;25.20;89.50;;;;;;5093677;28;20460;-94
2023/06/25 00:15:09;;;;;;;3.10;2.90;;;25.20;89.50;;;;;;5093618;28;20439;-91
2023/06/25 00:17:38;;;;;;;2.80;2.60;;;25.20;89.90;;;;;;5093567;28;20444;-90
2023/06/25 00:20:07;;;;;;;2.67;2.47;;;25.20;89.80;;;;;;5093431;28;20925;-90
2023/06/25 00:22:34;;;;;;;2.87;2.67;;;25.20;89.80;;;;;;5093585;28;20860;-90
2023/06/25 00:25:01;;;;;;;2.60;2.40;;;25.20;89.80;;;;;;5093999;28;20490;-90
2023/06/25 00:27:28;;;;;;;2.63;2.43;;;25.20;89.90;;;;;;5093646;28;20664;-90
2023/06/25 00:29:55;;;;;;;2.53;2.33;;;25.20;89.90;;;;;;5093676;28;20816;-90
2023/06/25 00:32:24;;;;;;;2.80;2.60;;;25.20;90.00;;;;;;5093363;28;20440;-90
2023/06/25 00:34:57;;;;;;;2.97;2.77;;;25.20;90.00;;;;;;5093265;28;21013;-90
2023/06/25 00:37:25;;;;;;;2.90;2.70;;;25.20;90.00;;;;;;5093608;28;20485;-94
2023/06/25 00:39:51;;;;;;;2.67;2.47;;;25.20;90.10;;;;;;5093133;28;20526;-90
2023/06/25 00:42:18;;;;;;;2.97;2.73;;;25.20;90.00;;;;;;5093315;28;20554;-96
2023/06/25 00:44:45;;;;;;;2.60;2.40;;;25.20;90.00;;;;;;5093399;28;20531;-90
2023/06/25 00:47:14;;;;;;;2.67;2.47;;;25.20;90.00;;;;;;5092781;28;20578;-90
2023/06/25 00:49:42;;;;;;;2.77;2.57;;;25.20;89.90;;;;;;5093222;28;20527;-93
2023/06/25 00:52:11;;;;;;;2.90;2.70;;;25.20;89.90;;;;;;5093316;28;20536;-90
2023/06/25 00:54:39;;;;;;;2.53;2.33;;;25.20;90.00;;;;;;5093418;28;20526;-91
2023/06/25 00:57:07;;;;;;;3.07;2.87;;;25.20;89.90;;;;;;5093199;28;20479;-90
2023/06/25 00:59:48;;;;;;;2.30;2.10;;;25.20;89.80;;;;;;5097102;28;20803;-90
2023/06/25 01:02:22;;;;;;;2.60;2.40;;;25.20;90.10;;;;;;5096836;28;20448;-90
2023/06/25 01:04:57;;;;;;;2.70;2.50;;;25.20;90.00;;;;;;5096719;28;20437;-90
2023/06/25 01:07:26;;;;;;;2.43;2.23;;;25.20;90.50;;;;;;5096848;28;20483;-90
2023/06/25 01:09:55;;;;;;;2.80;2.60;;;25.20;90.00;;;;;;5096909;28;20533;-90
2023/06/25 01:12:22;;;;;;;2.77;2.57;;;25.20;90.00;;;;;;5096687;28;20473;-90
2023/06/25 01:14:50;;;;;;;2.77;2.57;;;25.20;90.00;;;;;;5096491;28;20434;-90
2023/06/25 01:17:17;;;;;;;2.63;2.43;;;25.20;90.00;;;;;;5096397;28;20453;-95
2023/06/25 01:19:45;;;;;;;2.77;2.57;;;25.20;90.00;;;;;;5096838;28;20512;-90
2023/06/25 01:22:14;;;;;;;2.30;2.13;;;25.20;90.00;;;;;;5096700;28;20457;-90
2023/06/25 01:24:44;;;;;;;3.40;3.10;;;25.20;90.00;;;;;;5096274;28;20435;-90
2023/06/25 01:27:12;;;;;;;2.90;2.70;;;25.20;90.00;;;;;;5096414;28;20483;-91
2023/06/25 01:29:39;;;;;;;2.63;2.43;;;25.20;90.00;;;;;;5095989;28;20451;-90
2023/06/25 01:32:07;;;;;;;3.20;2.90;;;25.20;90.00;;;;;;5096182;28;20950;-95
2023/06/25 01:34:34;;;;;;;2.70;2.50;;;25.20;89.90;;;;;;5096573;28;20479;-90
2023/06/25 01:37:01;;;;;;;2.63;2.43;;;25.10;89.80;;;;;;5096791;28;20493;-90
2023/06/25 01:39:27;;;;;;;2.27;2.17;;;25.20;89.90;;;;;;5096017;28;20471;-94
2023/06/25 01:41:56;;;;;;;2.97;2.77;;;25.10;90.00;;;;;;5096026;28;20436;-95
2023/06/25 01:44:27;;;;;;;2.43;2.23;;;25.20;90.00;;;;;;5095966;28;20523;-95
2023/06/25 01:46:54;;;;;;;2.60;2.40;;;25.20;89.90;;;;;;5095917;28;20829;-93
2023/06/25 01:49:21;;;;;;;2.70;2.50;;;25.20;90.00;;;;;;5095969;28;20530;-90
2023/06/25 01:51:48;;;;;;;1.93;1.83;;;25.20;90.00;;;;;;5095817;28;20442;-95
2023/06/25 01:54:15;;;;;;;2.03;1.90;;;25.10;89.90;;;;;;5095958;28;20861;-90
2023/06/25 01:56:42;;;;;;;3.07;2.80;;;25.20;89.90;;;;;;5095584;28;20535;-90
2023/06/25 01:59:10;;;;;;;2.50;2.30;;;25.20;90.00;;;;;;5095732;28;20447;-91
2023/06/25 02:01:37;;;;;;;2.53;2.33;;;25.20;90.00;;;;;;5095864;28;20890;-90
2023/06/25 02:04:04;;;;;;;2.33;2.17;;;25.20;89.90;;;;;;5095591;28;20970;-90
2023/06/25 02:06:31;;;;;;;2.00;1.90;;;25.10;89.70;;;;;;5095599;28;20534;-90
2023/06/25 02:08:58;;;;;;;2.70;2.50;;;25.10;89.80;;;;;;5094487;28;20534;-90
2023/06/25 02:11:25;;;;;;;2.90;2.70;;;25.10;89.80;;;;;;5095597;28;20446;-90
2023/06/25 02:13:52;;;;;;;2.60;2.40;;;25.10;89.80;;;;;;5095156;28;20567;-90
2023/06/25 02:16:20;;;;;;;2.77;2.57;;;25.10;89.70;;;;;;5095476;28;20534;-90
2023/06/25 02:18:47;;;;;;;2.60;2.40;;;25.20;89.70;;;;;;5095713;28;20550;-94
2023/06/25 02:21:14;;;;;;;2.77;2.57;;;25.10;90.20;;;;;;5095690;28;20533;-90
2023/06/25 02:23:41;;;;;;;2.77;2.57;;;25.10;89.70;;;;;;5095757;28;20437;-90
2023/06/25 02:26:09;;;;;;;2.90;2.70;;;25.10;89.70;;;;;;5077142;28;20543;-90
2023/06/25 02:28:36;;;;;;;2.20;2.10;;;25.10;89.60;;;;;;5094973;28;20491;-90
2023/06/25 02:31:02;;;;;;;3.00;2.80;;;25.10;89.50;;;;;;5095097;28;20533;-90
2023/06/25 02:33:31;;;;;;;2.20;2.00;;;25.10;89.70;;;;;;5095282;28;20454;-90
2023/06/25 02:35:58;;;;;;;2.60;2.40;;;25.10;89.70;;;;;;5094941;28;20950;-93
2023/06/25 02:38:24;;;;;;;3.03;2.83;;;25.10;89.60;;;;;;5095377;28;20538;-90
2023/06/25 02:40:51;;;;;;;3.07;2.87;;;25.10;89.70;;;;;;5094798;28;20436;-90
2023/06/25 02:43:18;;;;;;;2.80;2.60;;;25.10;90.20;;;;;;5095006;28;20451;-90
2023/06/25 02:45:45;;;;;;;2.70;2.50;;;25.10;89.70;;;;;;5094715;28;20439;-95
2023/06/25 02:48:12;;;;;;;2.50;2.30;;;25.10;89.60;;;;;;5094630;28;20522;-90
2023/06/25 02:50:40;;;;;;;3.07;2.83;;;25.10;89.50;;;;;;5094767;28;20493;-90
2023/06/25 02:53:07;;;;;;;2.33;2.13;;;25.10;89.60;;;;;;5094888;28;20506;-90
2023/06/25 02:55:34;;;;;;;3.03;2.83;;;25.10;89.60;;;;;;5094974;28;20879;-90
2023/06/25 02:58:01;;;;;;;2.70;2.50;;;25.10;89.60;;;;;;5094782;28;21003;-90
2023/06/25 03:00:28;;;;;;;2.33;2.13;;;25.10;89.60;;;;;;5094878;28;20930;-93
2023/06/25 03:02:55;;;;;;;2.80;2.60;;;25.10;89.70;;;;;;5094581;28;20444;-90
2023/06/25 03:05:21;;;;;;;2.50;2.30;;;25.10;89.60;;;;;;5094399;28;20459;-90
2023/06/25 03:07:54;;;;;;;2.63;2.43;;;25.00;89.50;;;;;;5094282;28;20555;-90
2023/06/25 03:10:23;;;;;;;2.70;2.50;;;25.10;89.60;;;;;;5094589;28;20441;-90
2023/06/25 03:12:49;;;;;;;3.27;3.07;;;25.10;89.70;;;;;;5093981;28;20499;-90
2023/06/25 03:15:17;;;;;;;2.77;2.57;;;25.10;89.50;;;;;;5094401;28;20790;-94
2023/06/25 03:17:44;;;;;;;3.10;2.80;;;25.00;89.50;;;;;;5094391;28;20872;-90
2023/06/25 03:20:12;;;;;;;3.30;3.00;;;25.00;89.50;;;;;;5094246;28;20872;-90
2023/06/25 03:22:38;;;;;;;2.40;2.20;;;25.10;89.60;;;;;;5094255;28;20435;-90
2023/06/25 03:25:07;;;;;;;2.40;2.30;;;25.10;89.50;;;;;;5094738;28;20484;-90
2023/06/25 03:27:35;;;;;;;2.70;2.50;;;25.10;89.60;;;;;;5094644;28;20471;-90
2023/06/25 03:30:02;;;;;;;3.07;2.87;;;25.00;90.10;;;;;;5094130;28;20533;-90
2023/06/25 03:32:29;;;;;;;2.33;2.13;;;25.10;89.70;;;;;;5094782;28;20535;-91
2023/06/25 03:34:56;;;;;;;2.57;2.37;;;25.00;89.50;;;;;;5093984;28;20519;-90
2023/06/25 03:37:23;;;;;;;2.60;2.40;;;25.10;89.50;;;;;;5094298;28;20458;-92
2023/06/25 03:39:50;;;;;;;3.00;2.80;;;25.00;89.30;;;;;;5094603;28;20538;-90
2023/06/25 03:42:18;;;;;;;2.43;2.23;;;25.00;89.50;;;;;;5093995;28;20933;-90
2023/06/25 03:44:47;;;;;;;2.63;2.43;;;25.10;89.70;;;;;;5093843;28;20437;-89
2023/06/25 03:47:14;;;;;;;3.03;2.83;;;25.10;89.70;;;;;;5093942;28;20475;-90
2023/06/25 03:49:41;;;;;;;2.23;2.03;;;25.00;89.60;;;;;;5094068;28;20534;-90
2023/06/25 03:52:08;;;;;;;2.70;2.50;;;25.00;89.80;;;;;;5093844;28;20527;-90
2023/06/25 03:54:35;;;;;;;2.70;2.50;;;25.00;89.80;;;;;;5093829;28;20839;-90
2023/06/25 03:57:02;;;;;;;2.90;2.70;;;25.00;89.70;;;;;;5093715;28;20450;-95
2023/06/25 03:59:31;;;;;;;2.50;2.30;;;25.00;89.80;;;;;;5094408;28;20481;-94
2023/06/25 04:01:58;;;;;;;2.80;2.60;;;25.00;89.90;;;;;;5093745;28;20447;-95
2023/06/25 04:04:25;;;;;;;2.67;2.47;;;25.00;89.90;;;;;;5093969;28;20447;-95
2023/06/25 04:06:52;;;;;;;2.60;2.40;;;25.00;89.80;;;;;;5094050;28;20534;-90
2023/06/25 04:09:19;;;;;;;2.60;2.40;;;25.00;89.80;;;;;;5094251;28;20444;-90
2023/06/25 04:11:46;;;;;;;2.73;2.53;;;25.00;89.90;;;;;;5094014;28;20922;-90
2023/06/25 04:14:13;;;;;;;2.30;2.20;;;25.00;89.90;;;;;;5094518;28;20439;-94
2023/06/25 04:16:41;;;;;;;2.73;2.53;;;25.00;89.90;;;;;;5093647;28;21018;-90
2023/06/25 04:19:09;;;;;;;2.67;2.47;;;25.00;89.80;;;;;;5094204;28;20442;-90
2023/06/25 04:21:36;;;;;;;2.67;2.47;;;25.00;89.90;;;;;;5094971;28;20511;-90
2023/06/25 04:24:04;;;;;;;2.50;2.30;;;25.00;89.80;;;;;;5094210;28;20530;-90
2023/06/25 04:26:31;;;;;;;2.40;2.20;;;25.00;89.80;;;;;;5093220;28;20540;-90
2023/06/25 04:28:58;;;;;;;2.57;2.37;;;25.00;89.90;;;;;;5093365;28;20491;-90
2023/06/25 04:31:24;;;;;;;2.20;2.10;;;25.00;89.70;;;;;;5093825;28;20534;-90
2023/06/25 04:33:53;;;;;;;3.00;2.73;;;25.00;89.70;;;;;;5096276;28;20443;-90
2023/06/25 04:36:20;;;;;;;2.70;2.50;;;25.00;89.50;;;;;;5097331;28;21005;-90
2023/06/25 04:38:47;;;;;;;2.93;2.73;;;25.00;89.80;;;;;;5097597;28;20438;-90
2023/06/25 04:41:14;;;;;;;2.50;2.30;;;25.00;89.80;;;;;;5097331;28;20440;-90
2023/06/25 04:43:41;;;;;;;2.83;2.63;;;25.00;89.70;;;;;;5097085;28;20534;-90
2023/06/25 04:46:07;;;;;;;3.00;2.80;;;25.00;89.80;;;;;;5097296;28;20518;-90
2023/06/25 04:48:34;;;;;;;2.80;2.60;;;25.00;89.90;;;;;;5097077;28;20491;-92
2023/06/25 04:51:03;;;;;;;3.13;2.83;;;25.00;89.90;;;;;;5097011;28;20531;-90
2023/06/25 04:53:30;;;;;;;2.97;2.77;;;25.00;89.90;;;;;;5097371;28;20446;-91
2023/06/25 04:55:56;;;;;;;2.47;2.27;;;25.00;89.80;;;;;;5096917;28;20460;-91
2023/06/25 04:58:23;;;;;;;2.83;2.53;;;25.00;89.90;;;;;;5097085;28;20455;-90
2023/06/25 05:00:50;;;;;;;2.93;2.73;;;25.00;89.90;;;;;;5097000;28;20877;-90
2023/06/25 05:03:17;;;;;;;2.53;2.33;;;25.00;89.90;;;;;;5096849;28;20851;-92
2023/06/25 05:05:44;;;;;;;2.80;2.60;;;25.00;89.90;;;;;;5096616;28;20442;-90
2023/06/25 05:08:12;;;;;;;2.73;2.53;;;25.00;89.80;;;;;;5096722;28;20562;-89
2023/06/25 05:10:39;;;;;;;2.67;2.47;;;25.00;90.00;;;;;;5097198;28;20566;-90
2023/06/25 05:13:06;;;;;;;2.03;1.93;;;25.00;90.00;;;;;;5096650;28;20514;-90
2023/06/25 05:15:32;;;;;;;3.30;3.00;;;25.00;90.00;;;;;;5096678;28;20535;-90
2023/06/25 05:17:59;;;;;;;2.60;2.40;;;25.00;90.00;;;;;;5096834;28;20444;-90
2023/06/25 05:20:26;;;;;;;2.70;2.50;;;25.00;90.00;;;;;;5096489;28;20863;-90
2023/06/25 05:22:53;;;;;;;3.37;3.10;;;25.00;90.00;;;;;;5096319;28;20534;-90
2023/06/25 05:25:21;;;;;;;2.90;2.70;;;25.00;90.10;;;;;;5096491;28;20561;-91
2023/06/25 05:27:48;;;;;;;3.60;3.30;;;25.00;90.00;;;;;;5096369;28;21045;-90
2023/06/25 05:30:15;;;;;;;2.87;2.67;;;25.00;90.00;;;;;;5096171;28;20475;-90
2023/06/25 05:32:42;;;;;;;2.30;2.10;;;25.00;90.10;;;;;;5096744;28;20444;-90
2023/06/25 05:35:09;;;;;;;2.40;2.20;;;25.00;90.20;;;;;;5096057;28;20449;-91
2023/06/25 05:37:36;;;;;;;2.20;2.10;;;25.00;90.10;;;;;;5096249;28;20440;-90
2023/06/25 05:40:03;;;;;;;2.73;2.53;;;25.00;90.10;;;;;;5096239;28;20531;-90
2023/06/25 05:42:31;;;;;;;2.87;2.67;;;25.00;90.10;;;;;;5096259;28;20443;-90
2023/06/25 05:44:58;;;;;;;2.60;2.40;;;25.00;90.20;;;;;;5095940;28;20555;-90
2023/06/25 05:47:25;;;;;;;2.77;2.57;;;25.00;90.10;;;;;;5095666;28;20539;-92
2023/06/25 05:49:52;;;;;;;2.37;2.17;;;25.00;90.10;;;;;;5095914;28;20441;-89
2023/06/25 05:52:18;;;;;;;2.80;2.57;;;25.00;90.20;;;;;;5096224;28;20530;-90
2023/06/25 05:54:45;;;;;;;2.10;2.00;;;25.00;90.20;;;;;;5095928;28;20793;-90
2023/06/25 05:57:13;;;;;;;2.60;2.40;;;25.00;90.20;;;;;;5095659;28;21004;-90
2023/06/25 05:59:41;;;;;;;2.73;2.53;;;25.00;90.20;;;;;;5095669;28;20448;-95
2023/06/25 06:02:09;;;;;;;2.53;2.33;;;25.00;90.10;;;;;;5095830;28;20867;-90
2023/06/25 06:04:36;;;;;;;2.80;2.60;;;25.00;90.10;;;;;;5095648;28;20868;-94
2023/06/25 06:07:03;;;;;;;3.07;2.87;;;25.00;90.30;;;;;;5095633;28;20985;-89
2023/06/25 06:09:30;;;;;;;2.40;2.20;;;25.00;90.30;;;;;;5095671;28;20481;-89
2023/06/25 06:11:57;;;;;;;2.50;2.30;;;25.00;90.20;;;;;;5095505;28;20526;-96
2023/06/25 06:14:24;;;;;;;2.70;2.50;;;25.00;90.20;;;;;;5095665;28;20525;-91
2023/06/25 06:16:52;;;;;;;2.63;2.43;;;25.00;90.20;;;;;;5095543;28;20447;-90
2023/06/25 06:19:19;;;;;;;2.33;2.13;;;25.00;90.60;;;;;;5095412;28;20530;-90
2023/06/25 06:21:46;;;;;;;2.80;2.60;;;25.00;90.20;;;;;;5095667;28;20443;-90
2023/06/25 06:24:13;;;;;;;2.90;2.60;;;25.00;90.70;;;;;;5095462;28;20539;-90
2023/06/25 06:26:39;;;;;;;3.10;2.90;;;25.00;90.30;;;;;;5095169;28;20554;-89
2023/06/25 06:29:08;;;;;;;2.70;2.50;;;25.00;90.30;;;;;;5095303;28;20488;-89
2023/06/25 06:31:35;;;;;;;2.90;2.70;;;25.00;90.20;;;;;;5094983;28;20527;-90
2023/06/25 06:34:03;;;;;;;2.80;2.60;;;25.00;90.30;;;;;;5095239;28;20516;-90
2023/06/25 06:36:30;;;;;;;2.33;2.13;;;25.00;90.20;;;;;;5095059;28;20538;-95
2023/06/25 06:38:56;;;;;;;2.67;2.47;;;25.00;90.30;;;;;;5095195;28;20519;-90
2023/06/25 06:41:23;;;;;;;2.80;2.60;;;25.00;90.30;;;;;;5094757;28;20937;-90
2023/06/25 06:43:50;;;;;;;2.63;2.43;;;25.00;90.30;;;;;;5095374;28;20857;-92
2023/06/25 06:46:17;;;;;;;2.47;2.27;;;25.00;90.30;;;;;;5095655;28;20457;-90
2023/06/25 06:48:44;;;;;;;2.50;2.30;;;25.00;90.30;;;;;;5094731;28;20519;-92
2023/06/25 06:51:12;;;;;;;2.97;2.77;;;25.00;90.30;;;;;;5095021;28;20461;-94
2023/06/25 06:53:39;;;;;;;2.20;2.10;;;25.00;90.30;;;;;;5094586;28;20531;-90
2023/06/25 06:56:06;;;;;;;2.57;2.37;;;25.00;90.40;;;;;;5094276;28;20510;-90
2023/06/25 06:58:33;;;;;;;2.53;2.33;;;25.00;90.40;;;;;;5094528;28;20442;-90
2023/06/25 07:01:00;;;;;;;2.10;1.90;;;25.00;90.40;;;;;;5094640;28;20526;-93
2023/06/25 07:03:27;;;;;;;3.17;2.97;;;25.00;90.30;;;;;;5094580;28;20440;-90
2023/06/25 07:05:54;;;;;;;2.87;2.67;;;25.00;90.30;;;;;;5094955;28;20620;-89
2023/06/25 07:08:22;;;;;;;2.57;2.37;;;25.10;90.30;;;;;;5094459;28;20566;-90
2023/06/25 07:10:49;;;;;;;2.30;2.10;;;25.00;90.30;;;;;;5094676;28;20862;-91
2023/06/25 07:13:16;;;;;;;2.50;2.40;;;25.10;90.30;;;;;;5094362;28;20560;-95
2023/06/25 07:15:43;;;;;;;2.20;2.10;;;25.10;90.30;;;;;;5094482;28;20896;-92
2023/06/25 07:18:09;;;;;;;2.70;2.50;;;25.00;90.20;;;;;;5094159;28;20523;-94
2023/06/25 07:20:36;;;;;;;3.10;2.90;;;25.10;90.20;;;;;;5094244;28;20530;-89
2023/06/25 07:23:03;;;;;;;2.60;2.40;;;25.10;90.60;;;;;;5094911;28;20450;-89
2023/06/25 07:25:31;;;;;;;2.60;2.40;;;25.10;90.60;;;;;;5094112;28;20475;-89
2023/06/25 07:27:58;;;;;;;2.40;2.20;;;25.10;90.60;;;;;;5099591;28;20482;-91
2023/06/25 07:30:25;;;;;;;2.50;2.33;;;25.00;90.20;;;;;;5096128;28;20444;-94
2023/06/25 07:32:53;;;;;;;2.50;2.30;;;25.10;90.20;;;;;;5096576;28;20539;-90
2023/06/25 07:35:21;;;;;;;2.50;2.30;;;25.10;90.20;;;;;;5095911;28;20443;-95
2023/06/25 07:37:48;;;;;;;2.40;2.20;;;25.10;90.20;;;;;;5095732;28;20489;-90
2023/06/25 07:40:15;;;;;;;2.13;2.03;;;25.10;90.10;;;;;;5095984;28;20550;-90
2023/06/25 07:42:44;;;;;;;2.27;2.07;;;25.10;90.10;;;;;;5096352;28;20926;-90
2023/06/25 07:45:11;;;;;;;2.83;2.63;;;25.10;90.00;;;;;;5094498;28;20507;-90
2023/06/25 07:47:38;;;;;;;2.97;2.77;;;25.10;90.10;;;;;;5094032;28;20446;-95
2023/06/25 07:50:06;;;;;;;3.03;2.83;;;25.10;90.00;;;;;;5093584;28;20517;-91
2023/06/25 07:52:33;;;;;;;2.47;2.27;;;25.10;90.10;;;;;;5094263;28;20531;-91
2023/06/25 07:55:00;;;;;;;2.97;2.77;;;25.10;90.00;;;;;;5093643;28;20462;-94
2023/06/25 07:57:27;;;;;;;2.17;2.07;;;25.10;90.00;;;;;;5093846;28;20444;-89
2023/06/25 07:59:55;;;;;;;2.20;2.10;;;25.10;90.00;;;;;;5093830;28;20443;-95
2023/06/25 08:02:22;;;;;;;2.10;2.00;;;25.10;90.00;;;;;;5093676;28;20443;-91
2023/06/25 08:04:49;;;;;;;2.60;2.40;;;25.10;90.10;;;;;;5093628;28;20434;-95
2023/06/25 08:07:16;;;;;;;1.90;1.80;;;25.10;90.00;;;;;;5094282;28;20447;-90
2023/06/25 08:09:43;;;;;;;2.00;1.90;;;25.10;90.00;;;;;;5097652;28;20482;-90
2023/06/25 08:12:10;;;;;;;2.20;2.10;;;25.10;90.00;;;;;;5097607;28;20569;-90
2023/06/25 08:14:37;;;;;;;2.10;2.00;;;25.10;90.00;;;;;;5098396;28;20908;-95
2023/06/25 08:17:06;;;;;;;2.80;2.60;;;25.10;90.00;;;;;;5097608;28;20508;-90
2023/06/25 08:19:32;;;;;;;2.40;2.20;;;25.10;90.00;;;;;;5097793;28;20481;-90
2023/06/25 08:21:59;;;;;;;2.60;2.40;;;25.10;90.00;;;;;;5097580;28;20526;-90
2023/06/25 08:24:26;;;;;;;2.77;2.57;;;25.10;90.00;;;;;;5097584;28;20540;-90
2023/06/25 08:26:53;;;;;;;2.60;2.40;;;25.10;90.00;;;;;;5097693;28;20452;-90
2023/06/25 08:29:21;;;;;;;2.40;2.30;;;25.10;90.00;;;;;;5097393;28;20483;-90
2023/06/25 08:31:47;;;;;;;2.13;2.03;;;25.10;90.00;;;;;;5097524;28;20443;-89
2023/06/25 08:34:16;;;;;;;2.40;2.30;;;25.20;90.00;;;;;;5097430;28;20454;-90
2023/06/25 08:36:42;;;;;;;2.70;2.47;;;25.20;90.00;;;;;;5097341;28;20949;-90
2023/06/25 08:39:09;;;;;;;2.30;2.10;;;25.20;90.00;;;;;;5097485;28;20527;-90
2023/06/25 08:41:36;;;;;;;2.33;2.13;;;25.20;90.00;;;;;;5097803;28;20441;-90
2023/06/25 08:44:04;;;;;;;2.07;1.97;;;25.20;90.10;;;;;;5097274;28;20468;-90
2023/06/25 08:46:33;;;;;;;2.30;2.20;;;25.20;90.00;;;;;;5096854;28;20526;-90
2023/06/25 08:49:03;;;;;;;2.80;2.60;;;25.20;90.40;;;;;;5097153;28;20476;-90
2023/06/25 08:51:32;;;;;;;2.23;2.13;;;25.10;90.00;;;;;;5096983;28;20450;-94
2023/06/25 08:53:59;;;;;;;2.20;2.10;;;25.20;90.00;;;;;;5096921;28;20442;-94
2023/06/25 08:56:26;;;;;;;2.03;1.93;;;25.20;90.00;;;;;;5097083;28;20811;-90
2023/06/25 08:58:53;;;;;;;2.40;2.20;;;25.20;90.10;;;;;;5096755;28;20439;-89
2023/06/25 09:01:20;;;;;;;2.97;2.77;;;25.20;90.10;;;;;;5096999;28;20439;-90
2023/06/25 09:03:47;;;;;;;2.90;2.70;;;25.20;90.10;;;;;;5097001;28;20534;-90
2023/06/25 09:06:15;;;;;;;2.77;2.50;;;25.20;90.00;;;;;;5096734;28;20509;-90
2023/06/25 09:08:44;;;;;;;2.30;2.20;;;25.20;90.00;;;;;;5096838;28;20802;-90
2023/06/25 09:11:11;;;;;;;2.20;2.10;;;25.20;90.00;;;;;;5096990;28;20439;-90
2023/06/25 09:13:39;;;;;;;2.53;2.33;;;25.20;90.00;;;;;;5096522;28;20568;-90
2023/06/25 09:16:07;;;;;;;3.10;2.90;;;25.20;90.00;;;;;;5096630;28;20438;-94
2023/06/25 09:18:34;;;;;;;3.00;2.33;;;25.20;90.00;;;;;;5096181;28;20541;-90
2023/06/25 09:21:02;;;;;;;2.70;2.50;;;25.20;90.00;;;;;;5096578;28;20547;-90
2023/06/25 09:23:29;;;;;;;2.53;2.33;;;25.20;90.00;;;;;;5096444;28;20949;-95
2023/06/25 09:25:58;;;;;;;2.37;2.07;;;25.20;90.10;;;;;;5096386;28;20470;-93
2023/06/25 09:28:25;;;;;;;2.70;2.50;;;25.20;90.00;;;;;;5096463;28;20456;-90
2023/06/25 09:30:56;;;;;;;2.47;2.27;;;25.20;90.00;;;;;;5096099;28;20478;-91
2023/06/25 09:33:31;;;;;;;2.67;2.37;;;25.20;90.40;;;;;;5096464;28;20432;-91
2023/06/25 09:36:02;;;;;;;2.20;2.10;;;25.20;90.00;;;;;;5096693;28;20423;-93
2023/06/25 09:38:29;;;;;;;2.47;2.27;;;25.20;90.10;;;;;;5096114;28;20530;-91
2023/06/25 09:40:59;;;;;;;2.50;2.30;;;25.20;90.00;;;;;;5096231;28;20439;-94
2023/06/25 09:43:26;;;;;;;2.57;2.37;;;25.20;90.10;;;;;;5096894;28;20439;-91
2023/06/25 09:45:54;;;;;;;2.50;2.33;;;25.20;90.10;;;;;;5096350;28;20869;-91
2023/06/25 09:48:24;;;;;;;2.37;2.23;;;25.20;90.00;;;;;;5095871;28;20436;-91
2023/06/25 09:50:55;;;;;;;2.17;1.97;;;25.20;90.10;;;;;;5095818;28;20527;-95
2023/06/25 09:53:26;;;;;;;2.97;2.77;;;25.20;90.10;;;;;;5096827;28;20471;-93
2023/06/25 09:55:53;;;;;;;2.50;2.30;;;25.20;90.10;;;;;;5096004;28;20471;-91
2023/06/25 09:58:23;;;;;;;2.63;2.43;;;25.20;90.00;;;;;;5096022;28;20448;-91
2023/06/25 10:00:51;;;;;;;2.63;2.43;;;25.20;90.00;;;;;;5095900;28;20543;-95
2023/06/25 10:03:19;;;;;;;2.80;2.60;;;25.20;90.00;;;;;;5095460;28;20444;-90
2023/06/25 10:05:46;;;;;;;1.90;1.80;;;25.20;90.00;;;;;;5096096;28;20533;-91
2023/06/25 10:08:13;;;;;;;2.23;2.13;;;25.20;90.10;;;;;;5095910;28;20450;-91
2023/06/25 10:10:40;;;;;;;2.60;2.40;;;25.20;90.10;;;;;;5095497;28;20580;-92
2023/06/25 10:13:07;;;;;;;2.37;2.23;;;25.20;90.10;;;;;;5095381;28;20471;-91
2023/06/25 10:15:36;;;;;;;2.70;2.50;;;25.20;90.10;;;;;;5095933;28;20436;-91
2023/06/25 10:18:05;;;;;;;2.27;2.07;;;25.30;90.10;;;;;;5095891;28;21071;-92
2023/06/25 10:20:34;;;;;;;2.47;2.27;;;25.30;90.10;;;;;;5095405;28;21000;-91
2023/06/25 10:23:09;;;;;;;2.80;2.60;;;25.20;90.10;;;;;;5113256;28;20466;-95
2023/06/25 10:25:37;;;;;;;2.63;2.43;;;25.20;90.00;;;;;;5119763;28;20480;-91
2023/06/25 10:28:06;;;;;;;2.47;2.27;;;25.20;90.00;;;;;;5114972;28;20444;-92
2023/06/25 10:30:42;;;;;;;2.50;2.30;;;25.30;90.10;;;;;;5094910;28;20493;-94
2023/06/25 10:33:09;;;;;;;2.30;2.10;;;25.30;90.10;;;;;;5095559;28;20532;-91
2023/06/25 10:35:42;;;;;;;2.40;2.27;;;25.20;90.10;;;;;;5095377;28;20811;-91
2023/06/25 10:38:10;;;;;;;2.50;2.30;;;25.30;90.20;;;;;;5095577;28;20471;-91
2023/06/25 10:40:39;;;;;;;2.50;2.30;;;25.30;90.20;;;;;;5077124;28;20536;-91
2023/06/25 10:43:06;;;;;;;2.20;2.10;;;25.30;90.20;;;;;;5095723;28;20527;-91
2023/06/25 10:45:34;;;;;;;2.20;2.10;;;25.30;90.50;;;;;;5095065;28;20504;-91
2023/06/25 10:48:05;;;;;;;2.90;2.70;;;25.30;90.10;;;;;;5095043;28;20526;-95
2023/06/25 10:50:32;;;;;;;2.30;2.20;;;25.30;90.20;;;;;;5094687;28;20471;-90
2023/06/25 10:52:59;;;;;;;2.77;2.57;;;25.30;90.10;;;;;;5094921;28;20499;-94
2023/06/25 10:55:26;;;;;;;2.83;2.63;;;25.30;90.10;;;;;;5094579;28;20559;-95
2023/06/25 10:57:54;;;;;;;2.30;2.20;;;25.30;90.20;;;;;;5094679;28;20907;-93
2023/06/25 11:00:23;;;;;;;2.80;2.60;;;25.30;90.20;;;;;;5094749;28;20506;-94
2023/06/25 11:02:52;;;;;;;2.40;2.20;;;25.30;90.20;;;;;;5094724;28;20447;-95
2023/06/25 11:05:21;;;;;;;2.53;2.33;;;25.30;90.20;;;;;;5094318;28;20440;-91
2023/06/25 11:07:54;;;;;;;2.37;2.27;;;25.30;90.20;;;;;;5094495;28;20458;-91
2023/06/25 11:10:23;;;;;;;2.80;2.60;;;25.30;90.20;;;;;;5094555;28;20481;-92
2023/06/25 11:12:51;;;;;;;2.50;2.30;;;25.30;90.10;;;;;;5094287;28;20475;-94
2023/06/25 11:15:18;;;;;;;2.40;2.20;;;25.30;90.50;;;;;;5094298;28;20534;-92
2023/06/25 11:17:45;;;;;;;2.47;2.27;;;25.30;90.10;;;;;;5094359;28;20448;-94
2023/06/25 11:20:13;;;;;;;2.70;2.50;;;25.30;90.10;;;;;;5094601;28;20519;-92
2023/06/25 11:22:43;;;;;;;3.30;3.10;;;25.30;90.10;;;;;;5094480;28;20514;-92
2023/06/25 11:25:11;;;;;;;2.70;2.50;;;25.30;90.10;;;;;;5094174;28;20469;-94
2023/06/25 11:27:38;;;;;;;2.63;2.43;;;25.30;90.10;;;;;;5094690;28;20997;-91
2023/06/25 11:30:07;;;;;;;2.80;2.60;;;25.30;90.10;;;;;;5093905;28;20849;-94
2023/06/25 11:32:35;;;;;;;2.00;1.90;;;25.30;90.10;;;;;;5094138;28;20915;-92
2023/06/25 11:35:11;;;;;;;2.30;2.10;;;25.30;90.20;;;;;;5094207;28;20537;-94
2023/06/25 11:37:46;;;;;;;2.93;2.73;;;25.30;90.20;;;;;;5094606;28;20422;-94
2023/06/25 11:40:23;;;;;;;2.80;2.60;;;25.40;90.30;;;;;;5093666;28;20803;-94
2023/06/25 11:42:51;;;;;;;2.60;2.40;;;25.40;90.20;;;;;;5093979;28;20441;-92
2023/06/25 11:45:18;;;;;;;3.20;3.00;;;25.40;90.40;;;;;;5093656;28;20435;-94
2023/06/25 11:47:46;;;;;;;2.20;2.10;;;25.40;90.30;;;;;;5094083;28;20468;-94
2023/06/25 11:50:13;;;;;;;2.83;2.63;;;25.40;90.30;;;;;;5093942;28;20662;-92
2023/06/25 11:52:40;;;;;;;2.10;2.00;;;25.40;90.30;;;;;;5093719;28;20441;-91
2023/06/25 11:55:09;;;;;;;3.30;2.53;;;25.40;90.20;;;;;;5093970;28;20570;-92
2023/06/25 11:57:36;;;;;;;2.73;2.53;;;25.40;90.20;;;;;;5093560;28;20450;-91
2023/06/25 12:00:04;;;;;;;2.80;2.60;;;25.40;90.20;;;;;;5093579;28;20535;-94
2023/06/25 12:02:31;;;;;;;2.47;2.30;;;25.40;90.20;;;;;;5093678;28;21022;-94
2023/06/25 12:04:58;;;;;;;2.30;2.13;;;25.40;90.10;;;;;;5093725;28;20531;-94
2023/06/25 12:07:25;;;;;;;2.47;2.37;;;25.40;90.20;;;;;;5093758;28;20437;-93
2023/06/25 12:09:51;;;;;;;2.27;2.17;;;25.40;90.20;;;;;;5093848;28;20559;-92
2023/06/25 12:12:20;;;;;;;2.63;2.43;;;25.40;90.10;;;;;;5093758;28;20472;-92
2023/06/25 12:14:47;;;;;;;2.60;2.40;;;25.40;90.10;;;;;;5093809;28;20440;-94
2023/06/25 12:17:14;;;;;;;2.30;2.20;;;25.40;90.20;;;;;;5093799;28;20442;-91
2023/06/25 12:19:41;;;;;;;2.87;2.67;;;25.40;90.10;;;;;;5094177;28;20937;-92
2023/06/25 12:22:08;;;;;;;2.50;2.30;;;25.40;90.10;;;;;;5093642;28;21025;-92
2023/06/25 12:24:35;;;;;;;2.67;2.50;;;25.40;90.10;;;;;;5093436;28;20523;-93
2023/06/25 12:27:02;;;;;;;2.37;2.27;;;25.40;90.10;;;;;;5093907;28;20439;-92
2023/06/25 12:29:31;;;;;;;2.77;2.57;;;25.40;90.20;;;;;;5093473;28;20470;-92
2023/06/25 12:31:58;;;;;;;2.70;2.53;;;25.40;90.20;;;;;;5093478;28;20459;-94
2023/06/25 12:34:25;;;;;;;2.73;2.53;;;25.40;90.20;;;;;;5093748;28;20537;-92
2023/06/25 12:36:51;;;;;;;2.40;2.30;;;25.40;90.10;;;;;;5093526;28;20822;-94
2023/06/25 12:39:18;;;;;;;2.30;2.20;;;25.40;90.30;;;;;;5093422;28;20545;-95
2023/06/25 12:41:45;;;;;;;2.10;1.93;;;25.40;90.30;;;;;;5094039;28;20493;-91
2023/06/25 12:44:12;;;;;;;2.70;2.50;;;25.40;90.20;;;;;;5075787;28;20804;-92
2023/06/25 12:46:40;;;;;;;2.77;2.57;;;25.50;90.20;;;;;;5093695;28;20781;-92
2023/06/25 12:49:07;;;;;;;2.60;2.40;;;25.40;90.20;;;;;;5093329;28;20521;-92